sensor_id;sensor_type;location;lat;lon;timestamp;temperature;humidity
35325;DHT22;35135;47.510;19.036;2023-08-21T00:01:40;28.70;59.40
35325;DHT22;35135;47.510;19.036;2023-08-21T00:04:06;28.70;59.40
35325;DHT22;35135;47.510;19.036;2023-08-21T00:06:32;28.60;59.50
35325;DHT22;35135;47.510;19.036;2023-08-21T00:08:57;28.70;59.60
35325;DHT22;35135;47.510;19.036;2023-08-21T00:11:23;28.70;59.50
35325;DHT22;35135;47.510;19.036;2023-08-21T00:13:49;28.70;59.50
35325;DHT22;35135;47.510;19.036;2023-08-21T00:16:16;28.70;59.60
35325;DHT22;35135;47.510;19.036;2023-08-21T00:18:42;28.60;59.70
35325;DHT22;35135;47.510;19.036;2023-08-21T00:21:07;28.60;59.70
35325;DHT22;35135;47.510;19.036;2023-08-21T00:23:33;28.60;59.90
35325;DHT22;35135;47.510;19.036;2023-08-21T00:25:59;28.60;59.70
35325;DHT22;35135;47.510;19.036;2023-08-21T00:28:24;28.60;59.70
35325;DHT22;35135;47.510;19.036;2023-08-21T00:30:50;28.60;59.50
35325;DHT22;35135;47.510;19.036;2023-08-21T00:33:16;28.60;59.40
35325;DHT22;35135;47.510;19.036;2023-08-21T00:35:44;28.60;59.40
35325;DHT22;35135;47.510;19.036;2023-08-21T00:38:10;28.60;59.60
35325;DHT22;35135;47.510;19.036;2023-08-21T00:40:36;28.60;59.50
35325;DHT22;35135;47.510;19.036;2023-08-21T00:43:02;28.50;59.30
35325;DHT22;35135;47.510;19.036;2023-08-21T00:45:28;28.60;59.40
35325;DHT22;35135;47.510;19.036;2023-08-21T00:47:54;28.60;59.30
35325;DHT22;35135;47.510;19.036;2023-08-21T00:50:20;28.60;59.60
35325;DHT22;35135;47.510;19.036;2023-08-21T00:52:46;28.60;59.90
35325;DHT22;35135;47.510;19.036;2023-08-21T00:55:13;28.60;59.50
35325;DHT22;35135;47.510;19.036;2023-08-21T00:57:39;28.60;59.40
35325;DHT22;35135;47.510;19.036;2023-08-21T01:00:06;28.50;59.40
35325;DHT22;35135;47.510;19.036;2023-08-21T01:02:35;28.50;59.40
35325;DHT22;35135;47.510;19.036;2023-08-21T01:05:01;28.50;59.40
35325;DHT22;35135;47.510;19.036;2023-08-21T01:07:27;28.50;59.80
35325;DHT22;35135;47.510;19.036;2023-08-21T01:09:59;28.50;59.80
35325;DHT22;35135;47.510;19.036;2023-08-21T01:12:35;28.50;59.50
35325;DHT22;35135;47.510;19.036;2023-08-21T01:15:06;28.50;59.50
35325;DHT22;35135;47.510;19.036;2023-08-21T01:17:36;28.50;59.50
35325;DHT22;35135;47.510;19.036;2023-08-21T01:20:03;28.50;59.40
35325;DHT22;35135;47.510;19.036;2023-08-21T01:22:41;28.50;59.80
35325;DHT22;35135;47.510;19.036;2023-08-21T01:25:11;28.50;59.60
35325;DHT22;35135;47.510;19.036;2023-08-21T01:27:41;28.50;60.00
35325;DHT22;35135;47.510;19.036;2023-08-21T01:30:08;28.50;60.00
35325;DHT22;35135;47.510;19.036;2023-08-21T01:32:51;28.50;60.00
35325;DHT22;35135;47.510;19.036;2023-08-21T01:35:18;28.50;59.90
35325;DHT22;35135;47.510;19.036;2023-08-21T01:37:46;28.50;59.90
35325;DHT22;35135;47.510;19.036;2023-08-21T01:40:12;28.50;59.90
35325;DHT22;35135;47.510;19.036;2023-08-21T01:42:37;28.50;59.90
35325;DHT22;35135;47.510;19.036;2023-08-21T01:45:03;28.50;59.90
35325;DHT22;35135;47.510;19.036;2023-08-21T01:47:29;28.50;59.80
35325;DHT22;35135;47.510;19.036;2023-08-21T01:49:55;28.50;59.90
35325;DHT22;35135;47.510;19.036;2023-08-21T01:52:20;28.50;59.70
35325;DHT22;35135;47.510;19.036;2023-08-21T01:54:49;28.50;59.70
35325;DHT22;35135;47.510;19.036;2023-08-21T01:57:14;28.50;59.50
35325;DHT22;35135;47.510;19.036;2023-08-21T01:59:40;28.50;59.80
35325;DHT22;35135;47.510;19.036;2023-08-21T02:02:06;28.40;59.70
35325;DHT22;35135;47.510;19.036;2023-08-21T02:04:32;28.50;59.70
35325;DHT22;35135;47.510;19.036;2023-08-21T02:06:57;28.40;59.70
35325;DHT22;35135;47.510;19.036;2023-08-21T02:09:23;28.50;59.80
35325;DHT22;35135;47.510;19.036;2023-08-21T02:11:48;28.50;59.80
35325;DHT22;35135;47.510;19.036;2023-08-21T02:14:14;28.50;59.80
35325;DHT22;35135;47.510;19.036;2023-08-21T02:16:40;28.40;59.70
35325;DHT22;35135;47.510;19.036;2023-08-21T02:19:05;28.40;59.70
35325;DHT22;35135;47.510;19.036;2023-08-21T02:21:31;28.40;59.70
35325;DHT22;35135;47.510;19.036;2023-08-21T02:23:57;28.40;59.70
35325;DHT22;35135;47.510;19.036;2023-08-21T02:26:23;28.40;59.70
35325;DHT22;35135;47.510;19.036;2023-08-21T02:28:48;28.40;59.70
35325;DHT22;35135;47.510;19.036;2023-08-21T02:31:14;28.40;59.70
35325;DHT22;35135;47.510;19.036;2023-08-21T02:33:40;28.40;59.70
35325;DHT22;35135;47.510;19.036;2023-08-21T02:36:05;28.40;59.60
35325;DHT22;35135;47.510;19.036;2023-08-21T02:38:32;28.40;59.70
35325;DHT22;35135;47.510;19.036;2023-08-21T02:40:58;28.40;59.70
35325;DHT22;35135;47.510;19.036;2023-08-21T02:43:24;28.40;59.60
35325;DHT22;35135;47.510;19.036;2023-08-21T02:45:49;28.40;59.60
35325;DHT22;35135;47.510;19.036;2023-08-21T02:48:15;28.40;59.50
35325;DHT22;35135;47.510;19.036;2023-08-21T02:50:41;28.40;59.50
35325;DHT22;35135;47.510;19.036;2023-08-21T02:53:07;28.40;59.50
35325;DHT22;35135;47.510;19.036;2023-08-21T02:55:33;28.40;60.00
35325;DHT22;35135;47.510;19.036;2023-08-21T02:57:58;28.40;59.30
35325;DHT22;35135;47.510;19.036;2023-08-21T03:00:24;28.40;59.30
35325;DHT22;35135;47.510;19.036;2023-08-21T03:02:50;28.40;59.10
35325;DHT22;35135;47.510;19.036;2023-08-21T03:05:16;28.40;59.20
35325;DHT22;35135;47.510;19.036;2023-08-21T03:07:41;28.40;59.10
35325;DHT22;35135;47.510;19.036;2023-08-21T03:10:07;28.30;59.10
35325;DHT22;35135;47.510;19.036;2023-08-21T03:12:33;28.40;59.10
35325;DHT22;35135;47.510;19.036;2023-08-21T03:14:59;28.30;59.00
35325;DHT22;35135;47.510;19.036;2023-08-21T03:17:25;28.30;59.10
35325;DHT22;35135;47.510;19.036;2023-08-21T03:19:51;28.30;59.00
35325;DHT22;35135;47.510;19.036;2023-08-21T03:22:16;28.30;59.00
35325;DHT22;35135;47.510;19.036;2023-08-21T03:24:42;28.30;59.20
35325;DHT22;35135;47.510;19.036;2023-08-21T03:27:08;28.30;59.10
35325;DHT22;35135;47.510;19.036;2023-08-21T03:29:33;28.30;59.20
35325;DHT22;35135;47.510;19.036;2023-08-21T03:31:59;28.30;59.20
35325;DHT22;35135;47.510;19.036;2023-08-21T03:34:25;28.30;59.20
35325;DHT22;35135;47.510;19.036;2023-08-21T03:36:51;28.30;59.20
35325;DHT22;35135;47.510;19.036;2023-08-21T03:39:16;28.30;59.30
35325;DHT22;35135;47.510;19.036;2023-08-21T03:41:42;28.20;59.40
35325;DHT22;35135;47.510;19.036;2023-08-21T03:44:08;28.20;59.40
35325;DHT22;35135;47.510;19.036;2023-08-21T03:46:33;28.20;59.50
35325;DHT22;35135;47.510;19.036;2023-08-21T03:48:59;28.20;59.50
35325;DHT22;35135;47.510;19.036;2023-08-21T03:51:25;28.20;59.50
35325;DHT22;35135;47.510;19.036;2023-08-21T03:53:50;28.20;59.70
35325;DHT22;35135;47.510;19.036;2023-08-21T03:56:16;28.20;59.80
35325;DHT22;35135;47.510;19.036;2023-08-21T03:58:42;28.20;59.60
35325;DHT22;35135;47.510;19.036;2023-08-21T04:01:07;28.20;59.80
35325;DHT22;35135;47.510;19.036;2023-08-21T04:03:33;28.20;59.50
35325;DHT22;35135;47.510;19.036;2023-08-21T04:05:59;28.20;59.30
35325;DHT22;35135;47.510;19.036;2023-08-21T04:08:25;28.20;59.50
35325;DHT22;35135;47.510;19.036;2023-08-21T04:10:50;28.20;59.60
35325;DHT22;35135;47.510;19.036;2023-08-21T04:13:18;28.20;59.50
35325;DHT22;35135;47.510;19.036;2023-08-21T04:15:48;28.20;59.60
35325;DHT22;35135;47.510;19.036;2023-08-21T04:18:14;28.10;59.40
35325;DHT22;35135;47.510;19.036;2023-08-21T04:20:40;28.20;59.60
35325;DHT22;35135;47.510;19.036;2023-08-21T04:23:06;28.20;59.60
35325;DHT22;35135;47.510;19.036;2023-08-21T04:25:31;28.20;59.40
35325;DHT22;35135;47.510;19.036;2023-08-21T04:27:57;28.20;59.40
35325;DHT22;35135;47.510;19.036;2023-08-21T04:30:22;28.20;59.60
35325;DHT22;35135;47.510;19.036;2023-08-21T04:32:48;28.20;59.60
35325;DHT22;35135;47.510;19.036;2023-08-21T04:35:14;28.20;59.60
35325;DHT22;35135;47.510;19.036;2023-08-21T04:37:45;28.20;59.90
35325;DHT22;35135;47.510;19.036;2023-08-21T04:40:11;28.20;59.80
35325;DHT22;35135;47.510;19.036;2023-08-21T04:42:37;28.20;59.70
35325;DHT22;35135;47.510;19.036;2023-08-21T04:45:04;28.20;59.50
35325;DHT22;35135;47.510;19.036;2023-08-21T04:47:31;28.20;59.40
35325;DHT22;35135;47.510;19.036;2023-08-21T04:49:57;28.20;59.40
35325;DHT22;35135;47.510;19.036;2023-08-21T04:52:24;28.20;59.70
35325;DHT22;35135;47.510;19.036;2023-08-21T04:54:50;28.20;59.80
35325;DHT22;35135;47.510;19.036;2023-08-21T04:57:16;28.20;59.70
35325;DHT22;35135;47.510;19.036;2023-08-21T04:59:43;28.20;59.70
35325;DHT22;35135;47.510;19.036;2023-08-21T05:02:09;28.30;59.80
35325;DHT22;35135;47.510;19.036;2023-08-21T05:04:36;28.30;59.50
35325;DHT22;35135;47.510;19.036;2023-08-21T05:07:02;28.30;59.60
35325;DHT22;35135;47.510;19.036;2023-08-21T05:09:28;28.40;59.70
35325;DHT22;35135;47.510;19.036;2023-08-21T05:11:54;28.40;59.70
35325;DHT22;35135;47.510;19.036;2023-08-21T05:14:21;28.40;59.50
35325;DHT22;35135;47.510;19.036;2023-08-21T05:16:51;28.50;59.50
35325;DHT22;35135;47.510;19.036;2023-08-21T05:19:17;28.50;59.60
35325;DHT22;35135;47.510;19.036;2023-08-21T05:21:43;28.60;59.40
35325;DHT22;35135;47.510;19.036;2023-08-21T05:24:09;28.60;59.60
35325;DHT22;35135;47.510;19.036;2023-08-21T05:26:38;28.70;59.50
35325;DHT22;35135;47.510;19.036;2023-08-21T05:29:04;28.70;59.40
35325;DHT22;35135;47.510;19.036;2023-08-21T05:31:30;28.80;59.40
35325;DHT22;35135;47.510;19.036;2023-08-21T05:33:56;28.80;59.40
35325;DHT22;35135;47.510;19.036;2023-08-21T05:36:22;28.80;59.40
35325;DHT22;35135;47.510;19.036;2023-08-21T05:38:48;28.80;59.30
35325;DHT22;35135;47.510;19.036;2023-08-21T05:41:14;28.90;59.20
35325;DHT22;35135;47.510;19.036;2023-08-21T05:43:40;28.90;59.30
35325;DHT22;35135;47.510;19.036;2023-08-21T05:46:08;28.90;59.10
35325;DHT22;35135;47.510;19.036;2023-08-21T05:48:34;29.00;59.20
35325;DHT22;35135;47.510;19.036;2023-08-21T05:50:59;29.00;59.10
35325;DHT22;35135;47.510;19.036;2023-08-21T05:53:25;29.00;59.20
35325;DHT22;35135;47.510;19.036;2023-08-21T05:55:52;29.10;59.00
35325;DHT22;35135;47.510;19.036;2023-08-21T05:58:18;29.10;59.00
35325;DHT22;35135;47.510;19.036;2023-08-21T06:00:46;29.10;59.00
35325;DHT22;35135;47.510;19.036;2023-08-21T06:03:11;29.20;59.00
35325;DHT22;35135;47.510;19.036;2023-08-21T06:05:39;29.20;58.80
35325;DHT22;35135;47.510;19.036;2023-08-21T06:08:05;29.20;58.70
35325;DHT22;35135;47.510;19.036;2023-08-21T06:10:34;29.30;58.90
35325;DHT22;35135;47.510;19.036;2023-08-21T06:13:02;29.30;58.90
35325;DHT22;35135;47.510;19.036;2023-08-21T06:15:27;29.30;58.70
35325;DHT22;35135;47.510;19.036;2023-08-21T06:17:53;29.30;58.60
35325;DHT22;35135;47.510;19.036;2023-08-21T06:20:19;29.40;58.70
35325;DHT22;35135;47.510;19.036;2023-08-21T06:22:46;29.30;58.70
35325;DHT22;35135;47.510;19.036;2023-08-21T06:25:15;29.30;58.70
35325;DHT22;35135;47.510;19.036;2023-08-21T06:27:40;29.30;58.70
35325;DHT22;35135;47.510;19.036;2023-08-21T06:30:06;29.30;58.80
35325;DHT22;35135;47.510;19.036;2023-08-21T06:32:32;29.30;58.70
35325;DHT22;35135;47.510;19.036;2023-08-21T06:34:58;29.40;58.90
35325;DHT22;35135;47.510;19.036;2023-08-21T06:37:24;29.40;58.50
35325;DHT22;35135;47.510;19.036;2023-08-21T06:39:50;29.40;59.00
35325;DHT22;35135;47.510;19.036;2023-08-21T06:42:16;29.40;59.20
35325;DHT22;35135;47.510;19.036;2023-08-21T06:44:41;29.50;59.10
35325;DHT22;35135;47.510;19.036;2023-08-21T06:47:07;29.50;58.90
35325;DHT22;35135;47.510;19.036;2023-08-21T06:49:33;29.60;59.00
35325;DHT22;35135;47.510;19.036;2023-08-21T06:51:58;29.60;59.40
35325;DHT22;35135;47.510;19.036;2023-08-21T06:54:24;29.60;59.20
35325;DHT22;35135;47.510;19.036;2023-08-21T06:56:50;29.60;59.10
35325;DHT22;35135;47.510;19.036;2023-08-21T06:59:16;29.60;59.60
35325;DHT22;35135;47.510;19.036;2023-08-21T07:01:41;29.70;59.60
35325;DHT22;35135;47.510;19.036;2023-08-21T07:04:07;29.60;59.50
35325;DHT22;35135;47.510;19.036;2023-08-21T07:06:33;29.70;59.70
35325;DHT22;35135;47.510;19.036;2023-08-21T07:08:58;29.60;59.50
35325;DHT22;35135;47.510;19.036;2023-08-21T07:11:24;29.60;59.50
35325;DHT22;35135;47.510;19.036;2023-08-21T07:13:50;29.60;59.30
35325;DHT22;35135;47.510;19.036;2023-08-21T07:16:15;29.60;59.20
35325;DHT22;35135;47.510;19.036;2023-08-21T07:18:41;29.60;59.20
35325;DHT22;35135;47.510;19.036;2023-08-21T07:21:06;29.70;58.90
35325;DHT22;35135;47.510;19.036;2023-08-21T07:23:32;29.70;58.60
35325;DHT22;35135;47.510;19.036;2023-08-21T07:25:59;29.70;58.40
35325;DHT22;35135;47.510;19.036;2023-08-21T07:28:25;29.70;58.30
35325;DHT22;35135;47.510;19.036;2023-08-21T07:30:57;29.70;58.10
35325;DHT22;35135;47.510;19.036;2023-08-21T07:33:24;29.70;58.10
35325;DHT22;35135;47.510;19.036;2023-08-21T07:36:05;29.70;58.10
35325;DHT22;35135;47.510;19.036;2023-08-21T07:38:32;29.60;58.50
35325;DHT22;35135;47.510;19.036;2023-08-21T07:41:11;29.60;58.60
35325;DHT22;35135;47.510;19.036;2023-08-21T07:43:41;29.50;58.60
35325;DHT22;35135;47.510;19.036;2023-08-21T07:46:09;29.50;59.10
35325;DHT22;35135;47.510;19.036;2023-08-21T07:48:38;29.50;59.20
35325;DHT22;35135;47.510;19.036;2023-08-21T07:51:04;29.40;59.10
35325;DHT22;35135;47.510;19.036;2023-08-21T07:53:30;29.40;59.30
35325;DHT22;35135;47.510;19.036;2023-08-21T07:55:57;29.30;59.10
35325;DHT22;35135;47.510;19.036;2023-08-21T07:58:23;29.30;59.00
35325;DHT22;35135;47.510;19.036;2023-08-21T08:00:49;29.30;59.00
35325;DHT22;35135;47.510;19.036;2023-08-21T08:03:15;29.30;59.00
35325;DHT22;35135;47.510;19.036;2023-08-21T08:05:41;29.30;59.10
35325;DHT22;35135;47.510;19.036;2023-08-21T08:08:09;29.30;59.20
35325;DHT22;35135;47.510;19.036;2023-08-21T08:10:40;29.30;59.60
35325;DHT22;35135;47.510;19.036;2023-08-21T08:13:06;29.30;59.40
35325;DHT22;35135;47.510;19.036;2023-08-21T08:15:33;29.30;59.50
35325;DHT22;35135;47.510;19.036;2023-08-21T08:18:00;29.30;59.70
35325;DHT22;35135;47.510;19.036;2023-08-21T08:20:26;29.30;59.70
35325;DHT22;35135;47.510;19.036;2023-08-21T08:22:52;29.30;59.80
35325;DHT22;35135;47.510;19.036;2023-08-21T08:25:17;29.30;59.60
35325;DHT22;35135;47.510;19.036;2023-08-21T08:27:44;29.30;59.70
35325;DHT22;35135;47.510;19.036;2023-08-21T08:30:10;29.30;59.70
35325;DHT22;35135;47.510;19.036;2023-08-21T08:32:36;29.30;59.90
35325;DHT22;35135;47.510;19.036;2023-08-21T08:35:02;29.30;59.90
35325;DHT22;35135;47.510;19.036;2023-08-21T08:37:27;29.30;59.70
35325;DHT22;35135;47.510;19.036;2023-08-21T08:39:53;29.30;59.70
35325;DHT22;35135;47.510;19.036;2023-08-21T08:42:19;29.30;59.60
35325;DHT22;35135;47.510;19.036;2023-08-21T08:44:44;29.30;59.60
35325;DHT22;35135;47.510;19.036;2023-08-21T08:47:12;29.30;60.00
35325;DHT22;35135;47.510;19.036;2023-08-21T08:49:38;29.30;59.30
35325;DHT22;35135;47.510;19.036;2023-08-21T08:52:04;29.30;59.30
35325;DHT22;35135;47.510;19.036;2023-08-21T08:54:31;29.30;59.80
35325;DHT22;35135;47.510;19.036;2023-08-21T08:56:58;29.30;59.20
35325;DHT22;35135;47.510;19.036;2023-08-21T08:59:23;29.30;59.20
35325;DHT22;35135;47.510;19.036;2023-08-21T09:01:49;29.30;59.30
35325;DHT22;35135;47.510;19.036;2023-08-21T09:04:15;29.30;59.30
35325;DHT22;35135;47.510;19.036;2023-08-21T09:06:41;29.30;59.30
35325;DHT22;35135;47.510;19.036;2023-08-21T09:09:07;29.30;59.30
35325;DHT22;35135;47.510;19.036;2023-08-21T09:11:42;29.30;59.30
35325;DHT22;35135;47.510;19.036;2023-08-21T09:14:10;29.30;59.30
35325;DHT22;35135;47.510;19.036;2023-08-21T09:16:35;29.30;59.30
35325;DHT22;35135;47.510;19.036;2023-08-21T09:19:01;29.30;59.30
35325;DHT22;35135;47.510;19.036;2023-08-21T09:21:27;29.30;59.10
35325;DHT22;35135;47.510;19.036;2023-08-21T09:24:02;29.30;59.20
35325;DHT22;35135;47.510;19.036;2023-08-21T09:26:31;29.30;59.30
35325;DHT22;35135;47.510;19.036;2023-08-21T09:29:04;29.30;59.30
35325;DHT22;35135;47.510;19.036;2023-08-21T09:31:32;29.30;59.30
35325;DHT22;35135;47.510;19.036;2023-08-21T09:34:03;29.30;59.30
35325;DHT22;35135;47.510;19.036;2023-08-21T09:36:32;29.30;59.30
35325;DHT22;35135;47.510;19.036;2023-08-21T09:38:58;29.30;59.30
35325;DHT22;35135;47.510;19.036;2023-08-21T09:41:27;29.30;59.30
35325;DHT22;35135;47.510;19.036;2023-08-21T09:43:53;29.30;59.30
35325;DHT22;35135;47.510;19.036;2023-08-21T09:46:25;29.30;59.20
35325;DHT22;35135;47.510;19.036;2023-08-21T09:48:54;29.30;59.20
35325;DHT22;35135;47.510;19.036;2023-08-21T09:51:20;29.30;59.20
35325;DHT22;35135;47.510;19.036;2023-08-21T09:53:48;29.30;59.40
35325;DHT22;35135;47.510;19.036;2023-08-21T09:56:14;29.30;59.30
35325;DHT22;35135;47.510;19.036;2023-08-21T09:58:40;29.30;59.20
35325;DHT22;35135;47.510;19.036;2023-08-21T10:01:07;29.30;59.80
35325;DHT22;35135;47.510;19.036;2023-08-21T10:03:43;29.30;60.10
35325;DHT22;35135;47.510;19.036;2023-08-21T10:06:16;29.30;60.10
35325;DHT22;35135;47.510;19.036;2023-08-21T10:08:46;29.30;59.60
35325;DHT22;35135;47.510;19.036;2023-08-21T10:11:13;29.40;59.60
35325;DHT22;35135;47.510;19.036;2023-08-21T10:13:40;29.40;59.50
35325;DHT22;35135;47.510;19.036;2023-08-21T10:16:07;29.40;59.60
35325;DHT22;35135;47.510;19.036;2023-08-21T10:18:35;29.40;59.60
35325;DHT22;35135;47.510;19.036;2023-08-21T10:21:16;29.40;59.30
35325;DHT22;35135;47.510;19.036;2023-08-21T10:23:45;29.40;59.20
35325;DHT22;35135;47.510;19.036;2023-08-21T10:26:11;29.40;59.00
35325;DHT22;35135;47.510;19.036;2023-08-21T10:28:56;29.40;58.80
35325;DHT22;35135;47.510;19.036;2023-08-21T10:34:01;29.40;58.60
35325;DHT22;35135;47.510;19.036;2023-08-21T10:36:38;29.40;58.60
35325;DHT22;35135;47.510;19.036;2023-08-21T10:39:16;29.40;58.50
35325;DHT22;35135;47.510;19.036;2023-08-21T10:44:53;29.40;58.20
35325;DHT22;35135;47.510;19.036;2023-08-21T10:50:02;29.50;57.20
35325;DHT22;35135;47.510;19.036;2023-08-21T10:55:01;29.50;57.30
35325;DHT22;35135;47.510;19.036;2023-08-21T10:57:32;29.50;57.20
35325;DHT22;35135;47.510;19.036;2023-08-21T11:00:27;29.50;57.40
35325;DHT22;35135;47.510;19.036;2023-08-21T11:02:53;29.50;57.40
35325;DHT22;35135;47.510;19.036;2023-08-21T11:05:19;29.50;57.10
35325;DHT22;35135;47.510;19.036;2023-08-21T11:07:46;29.50;57.00
35325;DHT22;35135;47.510;19.036;2023-08-21T11:10:14;29.50;56.70
35325;DHT22;35135;47.510;19.036;2023-08-21T11:12:56;29.50;56.40
35325;DHT22;35135;47.510;19.036;2023-08-21T11:15:22;29.50;56.60
35325;DHT22;35135;47.510;19.036;2023-08-21T11:18:02;29.60;56.90
35325;DHT22;35135;47.510;19.036;2023-08-21T11:20:33;29.50;57.10
35325;DHT22;35135;47.510;19.036;2023-08-21T11:23:00;29.50;57.10
35325;DHT22;35135;47.510;19.036;2023-08-21T11:25:29;29.50;57.20
35325;DHT22;35135;47.510;19.036;2023-08-21T11:27:55;29.50;56.90
35325;DHT22;35135;47.510;19.036;2023-08-21T11:30:24;29.50;55.90
35325;DHT22;35135;47.510;19.036;2023-08-21T11:33:05;29.60;56.10
35325;DHT22;35135;47.510;19.036;2023-08-21T11:35:31;29.60;55.90
35325;DHT22;35135;47.510;19.036;2023-08-21T11:37:57;29.60;55.60
35325;DHT22;35135;47.510;19.036;2023-08-21T11:40:22;29.60;55.70
35325;DHT22;35135;47.510;19.036;2023-08-21T11:42:51;29.60;55.80
35325;DHT22;35135;47.510;19.036;2023-08-21T11:45:20;29.60;55.50
35325;DHT22;35135;47.510;19.036;2023-08-21T11:47:46;29.60;55.80
35325;DHT22;35135;47.510;19.036;2023-08-21T11:50:12;29.60;55.20
35325;DHT22;35135;47.510;19.036;2023-08-21T11:52:40;29.60;54.70
35325;DHT22;35135;47.510;19.036;2023-08-21T11:55:10;29.60;55.40
35325;DHT22;35135;47.510;19.036;2023-08-21T11:57:49;29.70;55.90
35325;DHT22;35135;47.510;19.036;2023-08-21T12:00:15;29.70;56.10
35325;DHT22;35135;47.510;19.036;2023-08-21T12:02:57;29.70;55.90
35325;DHT22;35135;47.510;19.036;2023-08-21T12:05:22;29.70;56.50
35325;DHT22;35135;47.510;19.036;2023-08-21T12:07:48;29.70;57.00
35325;DHT22;35135;47.510;19.036;2023-08-21T12:10:14;29.70;57.30
35325;DHT22;35135;47.510;19.036;2023-08-21T12:12:40;29.70;57.40
35325;DHT22;35135;47.510;19.036;2023-08-21T12:15:06;29.70;57.30
35325;DHT22;35135;47.510;19.036;2023-08-21T12:17:32;29.70;57.20
35325;DHT22;35135;47.510;19.036;2023-08-21T12:19:57;29.70;57.00
35325;DHT22;35135;47.510;19.036;2023-08-21T12:22:23;29.70;56.90
35325;DHT22;35135;47.510;19.036;2023-08-21T12:24:49;29.70;56.80
35325;DHT22;35135;47.510;19.036;2023-08-21T12:27:14;29.80;56.60
35325;DHT22;35135;47.510;19.036;2023-08-21T12:29:41;29.70;56.40
35325;DHT22;35135;47.510;19.036;2023-08-21T12:32:07;29.70;56.10
35325;DHT22;35135;47.510;19.036;2023-08-21T12:34:32;29.80;56.00
35325;DHT22;35135;47.510;19.036;2023-08-21T12:36:58;29.80;56.10
35325;DHT22;35135;47.510;19.036;2023-08-21T12:39:24;29.80;56.20
35325;DHT22;35135;47.510;19.036;2023-08-21T12:41:49;29.80;56.10
35325;DHT22;35135;47.510;19.036;2023-08-21T12:44:15;29.80;55.80
35325;DHT22;35135;47.510;19.036;2023-08-21T12:46:41;29.80;56.00
35325;DHT22;35135;47.510;19.036;2023-08-21T12:49:06;29.80;56.20
35325;DHT22;35135;47.510;19.036;2023-08-21T12:51:32;29.80;56.40
35325;DHT22;35135;47.510;19.036;2023-08-21T12:53:58;29.80;56.40
35325;DHT22;35135;47.510;19.036;2023-08-21T12:56:24;29.80;56.40
35325;DHT22;35135;47.510;19.036;2023-08-21T12:58:50;29.80;56.40
35325;DHT22;35135;47.510;19.036;2023-08-21T13:01:16;29.80;56.20
35325;DHT22;35135;47.510;19.036;2023-08-21T13:03:46;29.80;56.20
35325;DHT22;35135;47.510;19.036;2023-08-21T13:06:12;29.80;56.30
35325;DHT22;35135;47.510;19.036;2023-08-21T13:08:38;29.80;56.10
35325;DHT22;35135;47.510;19.036;2023-08-21T13:11:04;29.80;56.20
35325;DHT22;35135;47.510;19.036;2023-08-21T13:13:31;29.80;56.50
35325;DHT22;35135;47.510;19.036;2023-08-21T13:15:57;29.80;56.60
35325;DHT22;35135;47.510;19.036;2023-08-21T13:18:24;29.80;56.40
35325;DHT22;35135;47.510;19.036;2023-08-21T13:20:49;29.80;56.50
35325;DHT22;35135;47.510;19.036;2023-08-21T13:23:15;29.80;56.70
35325;DHT22;35135;47.510;19.036;2023-08-21T13:25:41;29.80;56.70
35325;DHT22;35135;47.510;19.036;2023-08-21T13:28:06;29.80;56.80
35325;DHT22;35135;47.510;19.036;2023-08-21T13:30:32;29.80;56.60
35325;DHT22;35135;47.510;19.036;2023-08-21T13:32:58;29.80;56.60
35325;DHT22;35135;47.510;19.036;2023-08-21T13:35:24;29.90;56.30
35325;DHT22;35135;47.510;19.036;2023-08-21T13:37:50;29.90;56.40
35325;DHT22;35135;47.510;19.036;2023-08-21T13:40:16;29.90;55.90
35325;DHT22;35135;47.510;19.036;2023-08-21T13:42:46;29.90;55.90
35325;DHT22;35135;47.510;19.036;2023-08-21T13:45:13;29.90;56.00
35325;DHT22;35135;47.510;19.036;2023-08-21T13:47:44;29.90;56.10
35325;DHT22;35135;47.510;19.036;2023-08-21T13:50:10;29.90;56.20
35325;DHT22;35135;47.510;19.036;2023-08-21T13:52:37;29.90;56.40
35325;DHT22;35135;47.510;19.036;2023-08-21T13:55:05;29.90;56.40
35325;DHT22;35135;47.510;19.036;2023-08-21T13:57:31;29.90;56.70
35325;DHT22;35135;47.510;19.036;2023-08-21T14:00:00;29.90;56.80
35325;DHT22;35135;47.510;19.036;2023-08-21T14:02:26;29.90;56.20
35325;DHT22;35135;47.510;19.036;2023-08-21T14:04:51;29.90;55.90
35325;DHT22;35135;47.510;19.036;2023-08-21T14:07:17;30.00;56.10
35325;DHT22;35135;47.510;19.036;2023-08-21T14:09:43;30.00;55.80
35325;DHT22;35135;47.510;19.036;2023-08-21T14:12:09;30.00;55.40
35325;DHT22;35135;47.510;19.036;2023-08-21T14:14:36;30.00;55.40
35325;DHT22;35135;47.510;19.036;2023-08-21T14:17:02;30.00;55.50
35325;DHT22;35135;47.510;19.036;2023-08-21T14:19:29;30.00;55.70
35325;DHT22;35135;47.510;19.036;2023-08-21T14:21:58;30.00;55.60
35325;DHT22;35135;47.510;19.036;2023-08-21T14:24:24;30.00;55.80
35325;DHT22;35135;47.510;19.036;2023-08-21T14:26:50;30.00;55.90
35325;DHT22;35135;47.510;19.036;2023-08-21T14:29:16;30.00;56.00
35325;DHT22;35135;47.510;19.036;2023-08-21T14:31:41;30.00;56.20
35325;DHT22;35135;47.510;19.036;2023-08-21T14:34:07;30.00;55.90
35325;DHT22;35135;47.510;19.036;2023-08-21T14:36:33;30.00;55.70
35325;DHT22;35135;47.510;19.036;2023-08-21T14:38:59;30.00;56.00
35325;DHT22;35135;47.510;19.036;2023-08-21T14:41:25;30.00;56.20
35325;DHT22;35135;47.510;19.036;2023-08-21T14:43:50;30.00;56.40
35325;DHT22;35135;47.510;19.036;2023-08-21T14:46:19;30.10;56.30
35325;DHT22;35135;47.510;19.036;2023-08-21T14:48:44;30.10;56.30
35325;DHT22;35135;47.510;19.036;2023-08-21T14:51:10;30.10;56.00
35325;DHT22;35135;47.510;19.036;2023-08-21T14:53:36;30.10;56.30
35325;DHT22;35135;47.510;19.036;2023-08-21T14:56:02;30.10;56.40
35325;DHT22;35135;47.510;19.036;2023-08-21T14:58:28;30.10;56.60
35325;DHT22;35135;47.510;19.036;2023-08-21T15:00:55;30.10;56.60
35325;DHT22;35135;47.510;19.036;2023-08-21T15:03:23;30.10;56.70
35325;DHT22;35135;47.510;19.036;2023-08-21T15:05:49;30.10;56.80
35325;DHT22;35135;47.510;19.036;2023-08-21T15:08:16;30.10;56.90
35325;DHT22;35135;47.510;19.036;2023-08-21T15:10:41;30.10;56.90
35325;DHT22;35135;47.510;19.036;2023-08-21T15:13:07;30.10;57.10
35325;DHT22;35135;47.510;19.036;2023-08-21T15:15:33;30.10;56.80
35325;DHT22;35135;47.510;19.036;2023-08-21T15:17:58;30.10;56.70
35325;DHT22;35135;47.510;19.036;2023-08-21T15:20:24;30.10;56.40
35325;DHT22;35135;47.510;19.036;2023-08-21T15:22:49;30.10;56.60
35325;DHT22;35135;47.510;19.036;2023-08-21T15:25:16;30.10;56.60